Acacia Lake, Texas
Current Conditions -  °F | °C
As of 3:53 AM on Monday 22 Dec 2014 (Local Time) from KBRO Reporting Station
Haze Haze  
Wind Chill: 62°   Ceiling: 2800
Heat Index: 62°   Visibility: 6mi
Dew Point: 60°   Wind: 5mph
Humidity: 93%   Direction: 190°S
Pressure: 29.81"   Gusts: NA
Location:  26.0002°N, 97.5729°W
Report Text: KBRO 220953Z AUTO 19004KT 6SM BR BKN028 17/16 A2981 RMK AO2 SLP092 T01670156
Loading
Personal Weather Stations






























Interactive Weather Map New forecast layout! Learn more

10-Day Weather Forecast

Advertisements
Track Severe Weather on mobile